Time;durP1;ratioP1;P1;durP2;ratioP2;P2;SDS_P1;SDS_P2;PMS_P1;PMS_P2;Temp;Humidity;BMP_temperature;BMP_pressure;BME280_temperature;BME280_humidity;BME280_pressure;Samples;Min_cycle;Max_cycle;Signal;HPM_P1;HPM_P2
2022/08/16 00:01:45;;;;;;;18.35;16.48;;;20.50;99.90;;;;;;5040368;28;20033;-57
2022/08/16 00:04:11;;;;;;;20.65;17.63;;;20.40;99.90;;;;;;5041745;28;20492;-57
2022/08/16 00:06:37;;;;;;;18.23;16.52;;;20.40;99.90;;;;;;5041492;28;20137;-59
2022/08/16 00:09:03;;;;;;;19.75;17.65;;;20.40;99.90;;;;;;5041992;28;20053;-57
2022/08/16 00:11:29;;;;;;;18.17;16.42;;;20.50;99.90;;;;;;5041729;28;20087;-57
2022/08/16 00:13:56;;;;;;;19.80;17.85;;;20.60;99.90;;;;;;5040841;28;20076;-57
2022/08/16 00:16:27;;;;;;;19.40;17.40;;;20.60;99.90;;;;;;5041696;28;20040;-57
2022/08/16 00:18:53;;;;;;;17.83;16.13;;;20.50;99.90;;;;;;5041835;28;20186;-57
2022/08/16 00:21:19;;;;;;;18.60;16.77;;;20.60;99.90;;;;;;5041447;28;20120;-58
2022/08/16 00:23:44;;;;;;;19.92;17.10;;;20.60;99.90;;;;;;5041665;28;20603;-57
2022/08/16 00:26:10;;;;;;;18.35;16.45;;;20.70;99.90;;;;;;5041493;28;20068;-58
2022/08/16 00:28:36;;;;;;;19.23;17.35;;;20.70;99.90;;;;;;5041585;28;20116;-57
2022/08/16 00:31:01;;;;;;;20.63;17.45;;;20.70;99.90;;;;;;5041951;28;20123;-57
2022/08/16 00:33:27;;;;;;;20.10;17.98;;;20.50;99.90;;;;;;5041000;28;20555;-57
2022/08/16 00:35:53;;;;;;;20.23;18.23;;;20.40;99.90;;;;;;5041384;28;20033;-57
2022/08/16 00:38:19;;;;;;;19.83;17.75;;;20.40;99.90;;;;;;5040119;28;20049;-57
2022/08/16 00:40:48;;;;;;;20.65;18.45;;;20.30;99.90;;;;;;5041801;28;20703;-58
2022/08/16 00:43:23;;;;;;;20.77;18.33;;;20.40;99.90;;;;;;5039039;28;20090;-57
2022/08/16 00:45:57;;;;;;;20.80;18.63;;;20.40;99.90;;;;;;5040159;28;20388;-57
2022/08/16 00:48:23;;;;;;;20.05;18.05;;;20.40;99.90;;;;;;5039112;28;20049;-58
2022/08/16 00:50:49;;;;;;;19.58;17.67;;;20.40;99.90;;;;;;5041721;28;20532;-57
2022/08/16 00:53:16;;;;;;;20.17;18.08;;;20.40;99.90;;;;;;5041524;28;20052;-57
2022/08/16 00:55:53;;;;;;;20.15;18.17;;;20.30;99.90;;;;;;5041419;28;20262;-57
2022/08/16 00:58:23;;;;;;;21.13;18.90;;;20.40;99.90;;;;;;5040548;28;20095;-58
2022/08/16 01:00:49;;;;;;;21.35;19.25;;;20.40;99.90;;;;;;5041339;28;20091;-58
2022/08/16 01:03:18;;;;;;;22.42;20.20;;;20.40;99.90;;;;;;5041402;28;20049;-57
2022/08/16 01:05:44;;;;;;;21.00;18.92;;;20.50;99.90;;;;;;5038745;28;20044;-57
2022/08/16 01:08:13;;;;;;;20.30;18.30;;;20.50;99.90;;;;;;5040850;28;20068;-57
2022/08/16 01:10:39;;;;;;;22.05;18.60;;;20.60;99.90;;;;;;5041121;28;20088;-57
2022/08/16 01:13:13;;;;;;;19.15;17.25;;;20.70;99.90;;;;;;5041450;28;20040;-57
2022/08/16 01:15:45;;;;;;;23.42;20.38;;;20.70;99.90;;;;;;5044817;28;20048;-58
2022/08/16 01:18:16;;;;;;;22.17;19.90;;;20.60;99.90;;;;;;5044928;28;20128;-57
2022/08/16 01:20:49;;;;;;;22.20;19.90;;;20.50;99.90;;;;;;5044669;28;20430;-57
2022/08/16 01:23:55;;;;;;;20.88;18.65;;;20.60;99.90;;;;;;5044878;28;20411;-57
2022/08/16 01:26:26;;;;;;;21.40;19.30;;;20.60;99.90;;;;;;5039058;28;20744;-58
2022/08/16 01:28:53;;;;;;;23.17;19.80;;;20.50;99.90;;;;;;5044420;28;20041;-57
2022/08/16 01:31:21;;;;;;;21.33;19.20;;;20.60;99.90;;;;;;5044446;28;20434;-59
2022/08/16 01:33:47;;;;;;;22.83;20.52;;;20.50;99.90;;;;;;5043046;28;20044;-58
2022/08/16 01:36:13;;;;;;;22.25;19.85;;;20.50;99.90;;;;;;5044636;28;20045;-58
2022/08/16 01:38:46;;;;;;;22.90;20.70;;;20.50;99.90;;;;;;5044604;28;20059;-57
2022/08/16 01:41:26;;;;;;;23.23;20.83;;;20.50;99.90;;;;;;5044205;28;20098;-57
2022/08/16 01:43:52;;;;;;;22.67;20.20;;;20.50;99.90;;;;;;5044007;28;20409;-57
2022/08/16 01:46:27;;;;;;;23.17;20.77;;;20.40;99.90;;;;;;5044575;28;20154;-58
2022/08/16 01:49:08;;;;;;;24.70;22.23;;;20.40;99.90;;;;;;5044245;28;20071;-57
2022/08/16 01:51:35;;;;;;;25.20;22.60;;;20.30;99.90;;;;;;5044808;28;20396;-58
2022/08/16 01:54:02;;;;;;;27.45;23.90;;;20.30;99.90;;;;;;5044282;28;20044;-57
2022/08/16 01:56:28;;;;;;;26.45;23.70;;;20.20;99.90;;;;;;5044105;28;20045;-58
2022/08/16 01:58:56;;;;;;;26.52;23.80;;;20.20;99.90;;;;;;5042944;28;20440;-58
2022/08/16 02:01:22;;;;;;;28.75;25.95;;;20.20;99.90;;;;;;5044470;28;20116;-58
2022/08/16 02:03:49;;;;;;;26.50;23.80;;;20.20;99.90;;;;;;5044244;28;20044;-58
2022/08/16 02:06:14;;;;;;;28.23;25.52;;;20.10;99.90;;;;;;5039899;28;20056;-58
2022/08/16 02:08:40;;;;;;;28.77;25.83;;;20.00;99.90;;;;;;5043921;28;20049;-58
2022/08/16 02:11:07;;;;;;;29.42;26.52;;;20.00;99.90;;;;;;5044463;28;20083;-59
2022/08/16 02:13:34;;;;;;;28.52;25.65;;;20.00;99.90;;;;;;5041883;28;20045;-58
2022/08/16 02:16:00;;;;;;;28.75;25.73;;;20.00;99.90;;;;;;5043813;28;20048;-58
2022/08/16 02:18:26;;;;;;;30.50;27.40;;;20.00;99.90;;;;;;5042624;28;20087;-58
2022/08/16 02:20:52;;;;;;;31.00;28.00;;;20.00;99.90;;;;;;5043766;28;20068;-58
2022/08/16 02:23:19;;;;;;;31.65;28.48;;;20.00;99.90;;;;;;5043286;28;20111;-58
2022/08/16 02:25:45;;;;;;;31.80;28.60;;;20.00;99.90;;;;;;5043464;28;20056;-58
2022/08/16 02:28:11;;;;;;;33.05;29.75;;;19.90;99.90;;;;;;5043065;28;20053;-59
2022/08/16 02:30:37;;;;;;;32.75;29.17;;;19.90;99.90;;;;;;5043644;28;20110;-60
2022/08/16 02:33:04;;;;;;;34.63;31.05;;;19.90;99.90;;;;;;5043707;28;20480;-58
2022/08/16 02:35:30;;;;;;;33.83;30.33;;;19.90;99.90;;;;;;5043496;28;20045;-58
2022/08/16 02:37:56;;;;;;;33.33;29.98;;;19.90;99.90;;;;;;5043838;28;20041;-58
2022/08/16 02:40:22;;;;;;;33.60;30.17;;;19.80;99.90;;;;;;5042686;28;20420;-58
2022/08/16 02:42:49;;;;;;;33.35;30.10;;;19.80;99.90;;;;;;5042767;28;20461;-58
2022/08/16 02:45:17;;;;;;;34.40;30.90;;;19.80;99.90;;;;;;5043341;28;20124;-59
2022/08/16 02:47:43;;;;;;;35.10;31.23;;;19.80;99.90;;;;;;5043080;28;20075;-58
2022/08/16 02:50:09;;;;;;;35.85;32.30;;;19.80;99.90;;;;;;5042982;28;20041;-58
2022/08/16 02:52:35;;;;;;;34.90;31.30;;;19.80;99.90;;;;;;5043669;28;20044;-58
2022/08/16 02:55:01;;;;;;;35.83;32.05;;;19.70;99.90;;;;;;5043518;28;20440;-58
2022/08/16 02:57:26;;;;;;;35.47;31.90;;;19.70;99.90;;;;;;5042069;28;20086;-58
2022/08/16 02:59:52;;;;;;;35.65;32.22;;;19.70;99.90;;;;;;5042448;28;20045;-58
2022/08/16 03:02:18;;;;;;;36.00;32.10;;;19.70;99.90;;;;;;5043151;28;20525;-58
2022/08/16 03:04:44;;;;;;;35.58;31.70;;;19.60;99.90;;;;;;5043119;28;20519;-58
2022/08/16 03:07:10;;;;;;;35.70;31.98;;;19.60;99.90;;;;;;5042050;28;20049;-58
2022/08/16 03:09:37;;;;;;;36.25;32.45;;;19.60;99.90;;;;;;5042709;28;20395;-58
2022/08/16 03:12:04;;;;;;;35.28;31.60;;;19.70;99.90;;;;;;5042531;28;20048;-58
2022/08/16 03:14:30;;;;;;;37.15;33.22;;;19.60;99.90;;;;;;5042703;28;20173;-58
2022/08/16 03:16:56;;;;;;;36.03;32.30;;;19.60;99.90;;;;;;5042781;28;20491;-58
2022/08/16 03:19:21;;;;;;;37.20;33.25;;;19.60;99.90;;;;;;5041939;28;20079;-58
2022/08/16 03:21:47;;;;;;;35.50;31.98;;;19.60;99.90;;;;;;5041519;28;20049;-57
2022/08/16 03:24:12;;;;;;;37.28;33.28;;;19.60;99.90;;;;;;5042419;28;20044;-58
2022/08/16 03:26:38;;;;;;;37.63;33.63;;;19.60;99.90;;;;;;5041497;28;20053;-58
2022/08/16 03:29:04;;;;;;;36.05;32.33;;;19.60;99.90;;;;;;5041478;28;20176;-58
2022/08/16 03:31:30;;;;;;;36.75;33.00;;;19.50;99.90;;;;;;5040882;28;20132;-58
2022/08/16 03:33:56;;;;;;;37.05;33.33;;;19.50;99.90;;;;;;5042637;28;20298;-58
2022/08/16 03:36:22;;;;;;;37.08;33.47;;;19.60;99.90;;;;;;5041174;28;20052;-57
2022/08/16 03:38:48;;;;;;;38.20;33.95;;;19.50;99.90;;;;;;5042473;28;20503;-58
2022/08/16 03:41:13;;;;;;;37.67;33.70;;;19.40;99.90;;;;;;5042297;28;20141;-58
2022/08/16 03:43:39;;;;;;;39.53;35.35;;;19.50;99.90;;;;;;5040497;28;20097;-58
2022/08/16 03:46:05;;;;;;;39.30;35.30;;;19.40;99.90;;;;;;5042019;28;20257;-58
2022/08/16 03:48:34;;;;;;;37.03;33.17;;;19.70;99.90;;;;;;5041840;28;20045;-58
2022/08/16 03:51:01;;;;;;;37.55;33.60;;;19.40;99.90;;;;;;5042366;28;20060;-58
2022/08/16 03:53:28;;;;;;;39.63;35.35;;;19.30;99.90;;;;;;5041938;28;20372;-57
2022/08/16 03:55:53;;;;;;;37.50;33.60;;;19.40;99.90;;;;;;5041601;28;20080;-58
2022/08/16 03:58:19;;;;;;;40.20;33.72;;;19.40;99.90;;;;;;5041197;28;20088;-57
2022/08/16 04:00:45;;;;;;;37.55;33.67;;;19.40;99.90;;;;;;5042048;28;20746;-57
2022/08/16 04:03:11;;;;;;;37.45;33.58;;;19.40;99.90;;;;;;5042235;28;20693;-57
2022/08/16 04:05:41;;;;;;;39.38;35.28;;;19.40;99.90;;;;;;5040991;28;20141;-59
2022/08/16 04:08:07;;;;;;;41.33;35.05;;;19.40;99.90;;;;;;5037334;28;20049;-58
2022/08/16 04:10:32;;;;;;;39.78;35.67;;;19.40;99.90;;;;;;5042093;28;20044;-58
2022/08/16 04:12:58;;;;;;;40.22;36.10;;;19.40;99.90;;;;;;5041009;28;20036;-58
2022/08/16 04:15:28;;;;;;;39.95;35.88;;;19.40;99.90;;;;;;5041844;28;20052;-58
2022/08/16 04:17:53;;;;;;;39.53;35.33;;;19.40;99.90;;;;;;5041775;28;20072;-58
2022/08/16 04:20:20;;;;;;;38.70;34.60;;;19.40;99.90;;;;;;5041517;28;20033;-59
2022/08/16 04:22:46;;;;;;;40.92;36.53;;;19.40;99.90;;;;;;5039866;28;20063;-58
2022/08/16 04:25:12;;;;;;;41.53;37.33;;;19.40;99.90;;;;;;5041536;28;20041;-58
2022/08/16 04:27:39;;;;;;;40.22;36.03;;;19.40;99.90;;;;;;5041098;28;20098;-58
2022/08/16 04:30:10;;;;;;;41.08;36.05;;;19.30;99.90;;;;;;5042393;28;20056;-58
2022/08/16 04:32:36;;;;;;;39.45;35.28;;;19.40;99.90;;;;;;5040223;28;20073;-58
2022/08/16 04:35:03;;;;;;;41.35;36.92;;;19.30;99.90;;;;;;5040923;28;20041;-58
2022/08/16 04:37:29;;;;;;;40.90;36.90;;;19.30;99.90;;;;;;5041493;28;20049;-58
2022/08/16 04:39:55;;;;;;;42.33;37.47;;;19.30;99.90;;;;;;5040865;28;20134;-58
2022/08/16 04:42:20;;;;;;;40.22;36.10;;;19.30;99.90;;;;;;5039351;28;20049;-59
2022/08/16 04:44:46;;;;;;;38.95;34.88;;;19.20;99.90;;;;;;5041507;28;20554;-58
2022/08/16 04:47:12;;;;;;;40.67;36.33;;;19.30;99.90;;;;;;5042582;28;20037;-58
2022/08/16 04:49:38;;;;;;;39.97;35.72;;;19.30;99.90;;;;;;5043665;28;20056;-58
2022/08/16 04:52:04;;;;;;;40.15;36.08;;;19.20;99.90;;;;;;5045859;28;20067;-58
2022/08/16 04:54:29;;;;;;;41.25;37.13;;;19.30;99.90;;;;;;5043749;28;20041;-58
2022/08/16 04:56:55;;;;;;;40.80;36.50;;;19.30;99.90;;;;;;5045082;28;20045;-58
2022/08/16 04:59:21;;;;;;;39.17;35.20;;;19.30;99.90;;;;;;5043480;28;20048;-58
2022/08/16 05:01:47;;;;;;;39.50;35.40;;;19.20;99.90;;;;;;5045208;28;20051;-58
2022/08/16 05:04:13;;;;;;;39.05;35.13;;;19.30;99.90;;;;;;5045279;28;20733;-58
2022/08/16 05:06:39;;;;;;;37.35;33.47;;;19.30;99.90;;;;;;5044581;28;20458;-58
2022/08/16 05:09:05;;;;;;;37.88;33.15;;;19.30;99.90;;;;;;5044901;28;20052;-58
2022/08/16 05:11:30;;;;;;;38.40;33.88;;;19.30;99.90;;;;;;5044288;28;20522;-58
2022/08/16 05:13:59;;;;;;;36.67;32.72;;;19.30;99.90;;;;;;5045145;28;20667;-58
2022/08/16 05:16:28;;;;;;;38.30;34.53;;;19.30;99.90;;;;;;5045280;28;20115;-57
2022/08/16 05:18:56;;;;;;;36.83;32.85;;;19.40;99.90;;;;;;5043803;28;20064;-58
2022/08/16 05:21:22;;;;;;;37.92;34.03;;;19.40;99.90;;;;;;5044720;28;20415;-58
2022/08/16 05:23:49;;;;;;;35.78;32.10;;;19.50;99.90;;;;;;5045010;28;20044;-58
2022/08/16 05:26:15;;;;;;;36.58;32.97;;;19.50;99.90;;;;;;5043519;28;20084;-58
2022/08/16 05:28:41;;;;;;;37.80;33.88;;;19.60;99.90;;;;;;5045226;28;20084;-58
2022/08/16 05:31:07;;;;;;;37.50;33.70;;;19.60;99.90;;;;;;5044579;28;20519;-58
2022/08/16 05:33:32;;;;;;;37.90;33.90;;;19.50;99.90;;;;;;5044062;28;20573;-58
2022/08/16 05:35:58;;;;;;;37.67;33.60;;;19.50;99.90;;;;;;5044002;28;20079;-58
2022/08/16 05:38:26;;;;;;;37.80;33.53;;;19.40;99.90;;;;;;5044758;28;20033;-58
2022/08/16 05:40:54;;;;;;;37.22;33.40;;;19.40;99.90;;;;;;5043511;28;20124;-58
2022/08/16 05:43:20;;;;;;;36.95;33.03;;;19.40;99.90;;;;;;5043718;28;20168;-57
2022/08/16 05:45:45;;;;;;;36.00;32.30;;;19.40;99.90;;;;;;5043946;28;20503;-58
2022/08/16 05:48:11;;;;;;;36.75;32.78;;;19.40;99.90;;;;;;5044239;28;20092;-58
2022/08/16 05:50:38;;;;;;;36.92;33.25;;;19.40;99.90;;;;;;5044145;28;20055;-58
2022/08/16 05:53:04;;;;;;;35.33;31.83;;;19.50;99.90;;;;;;5044934;28;20041;-58
2022/08/16 05:55:30;;;;;;;34.88;31.13;;;19.50;99.90;;;;;;5043745;28;20048;-58
2022/08/16 05:57:55;;;;;;;32.35;29.02;;;19.70;99.90;;;;;;5043608;28;20484;-58
2022/08/16 06:00:21;;;;;;;31.88;28.65;;;19.90;99.90;;;;;;5043471;28;20146;-58
2022/08/16 06:02:47;;;;;;;31.15;28.13;;;20.00;99.90;;;;;;5043987;28;20095;-58
2022/08/16 06:05:13;;;;;;;30.45;27.25;;;20.40;99.90;;;;;;5041886;28;20144;-58
2022/08/16 06:07:39;;;;;;;30.27;27.08;;;20.30;99.90;;;;;;5043238;28;20099;-58
2022/08/16 06:10:06;;;;;;;30.55;27.45;;;20.20;99.90;;;;;;5044851;28;20045;-59
2022/08/16 06:12:31;;;;;;;30.90;27.80;;;20.50;99.90;;;;;;5043082;28;20044;-59
2022/08/16 06:15:01;;;;;;;31.92;28.75;;;20.60;99.90;;;;;;5044073;28;20680;-58
2022/08/16 06:17:28;;;;;;;30.88;27.75;;;20.80;99.90;;;;;;5043928;28;20059;-58
2022/08/16 06:19:54;;;;;;;33.33;27.05;;;20.80;99.90;;;;;;5044198;28;20037;-59
2022/08/16 06:22:20;;;;;;;29.88;26.73;;;21.00;99.90;;;;;;5043374;28;20462;-58
2022/08/16 06:24:45;;;;;;;29.30;26.35;;;20.90;99.90;;;;;;5043172;28;20040;-59
2022/08/16 06:27:11;;;;;;;30.88;27.60;;;20.80;99.90;;;;;;5042621;28;20545;-58
2022/08/16 06:29:37;;;;;;;30.35;26.13;;;20.40;99.90;;;;;;5043705;28;20098;-55
2022/08/16 06:32:03;;;;;;;29.67;26.50;;;20.30;99.90;;;;;;5043493;28;20267;-58
2022/08/16 06:34:29;;;;;;;30.65;27.27;;;20.20;99.90;;;;;;5043703;28;20056;-59
2022/08/16 06:36:55;;;;;;;31.33;27.10;;;20.00;99.90;;;;;;5043845;28;20040;-58
2022/08/16 06:39:21;;;;;;;32.80;29.35;;;20.00;99.90;;;;;;5041571;28;20610;-57
2022/08/16 06:41:46;;;;;;;31.55;28.23;;;20.00;99.90;;;;;;5041735;28;20033;-58
2022/08/16 06:44:12;;;;;;;30.85;27.73;;;20.10;99.90;;;;;;5043215;28;20553;-57
2022/08/16 06:46:38;;;;;;;29.63;26.65;;;20.50;99.90;;;;;;5043701;28;20052;-58
2022/08/16 06:49:08;;;;;;;30.60;27.60;;;20.80;99.90;;;;;;5043509;28;20071;-58
2022/08/16 06:51:35;;;;;;;28.63;25.85;;;21.20;99.90;;;;;;5043553;28;20051;-57
2022/08/16 06:54:01;;;;;;;26.92;24.05;;;21.40;99.90;;;;;;5043345;28;20577;-57
2022/08/16 06:56:27;;;;;;;28.75;25.77;;;21.40;99.90;;;;;;5042395;28;20094;-58
2022/08/16 06:58:53;;;;;;;26.52;23.77;;;21.40;99.90;;;;;;5041280;28;20045;-59
2022/08/16 07:01:22;;;;;;;28.92;25.67;;;21.30;99.90;;;;;;5042759;28;20515;-58
2022/08/16 07:03:49;;;;;;;27.00;24.25;;;21.60;99.90;;;;;;5043601;28;20553;-58
2022/08/16 07:06:17;;;;;;;24.98;22.25;;;21.70;99.90;;;;;;5041990;28;20083;-58
2022/08/16 07:08:43;;;;;;;25.67;23.02;;;21.90;99.90;;;;;;5042297;28;20053;-58
2022/08/16 07:11:09;;;;;;;25.42;22.83;;;22.00;99.90;;;;;;5041336;28;20053;-59
2022/08/16 07:13:36;;;;;;;22.38;19.23;;;22.00;99.90;;;;;;5043318;28;20507;-74
2022/08/16 07:16:03;;;;;;;25.25;22.25;;;21.90;99.90;;;;;;5042938;28;20394;-76
2022/08/16 07:18:28;;;;;;;25.40;22.50;;;22.10;99.90;;;;;;5042715;28;20084;-75
2022/08/16 07:20:56;;;;;;;23.50;21.20;;;22.60;99.90;;;;;;5040828;28;20103;-76
2022/08/16 07:23:22;;;;;;;25.95;23.13;;;22.30;99.90;;;;;;5022742;28;20049;-73
2022/08/16 07:25:48;;;;;;;25.63;22.67;;;22.40;99.90;;;;;;5021386;28;20133;-68
2022/08/16 07:28:15;;;;;;;25.50;21.67;;;22.60;99.90;;;;;;5022767;28;20065;-74
2022/08/16 07:30:42;;;;;;;25.50;22.75;;;22.60;99.90;;;;;;5021166;28;20124;-72
2022/08/16 07:33:09;;;;;;;24.83;22.10;;;23.00;99.90;;;;;;5022530;28;20491;-74
2022/08/16 07:35:35;;;;;;;23.58;21.10;;;22.70;99.90;;;;;;5022435;28;20052;-59
2022/08/16 07:38:01;;;;;;;23.80;19.48;;;22.90;99.90;;;;;;5033613;28;20655;-47
2022/08/16 07:40:27;;;;;;;24.27;21.67;;;22.60;99.90;;;;;;5041006;28;21159;-46
2022/08/16 07:42:52;;;;;;;25.60;21.55;;;22.90;99.90;;;;;;5041785;28;20040;-49
2022/08/16 07:45:18;;;;;;;21.77;19.38;;;23.00;99.90;;;;;;5040087;28;20041;-46
2022/08/16 07:47:44;;;;;;;21.75;19.55;;;23.30;99.90;;;;;;5042088;28;20515;-66
2022/08/16 07:50:12;;;;;;;22.55;19.95;;;23.00;99.90;;;;;;5041745;28;20048;-64
2022/08/16 07:52:39;;;;;;;21.27;19.13;;;22.90;99.90;;;;;;5042152;28;20044;-64
2022/08/16 07:55:06;;;;;;;21.02;18.83;;;23.20;99.90;;;;;;5041730;28;20443;-65
2022/08/16 07:57:32;;;;;;;19.70;17.70;;;23.50;99.90;;;;;;5041388;28;20501;-71
2022/08/16 07:59:59;;;;;;;21.50;19.17;;;23.10;99.90;;;;;;5041406;28;20087;-70
2022/08/16 08:02:25;;;;;;;21.25;17.52;;;23.30;99.90;;;;;;5040805;28;20040;-70
2022/08/16 08:04:51;;;;;;;20.45;18.20;;;23.40;99.90;;;;;;5040483;28;20172;-68
2022/08/16 08:07:17;;;;;;;18.67;16.40;;;23.70;99.90;;;;;;5034146;28;20522;-72
2022/08/16 08:09:43;;;;;;;21.80;17.35;;;24.00;99.90;;;;;;5042261;28;20041;-69
2022/08/16 08:12:09;;;;;;;19.13;16.60;;;23.90;99.90;;;;;;5040250;28;20044;-67
2022/08/16 08:14:35;;;;;;;16.83;13.82;;;24.00;99.90;;;;;;5041882;28;20037;-54
2022/08/16 08:17:03;;;;;;;20.63;17.58;;;23.70;99.90;;;;;;5041140;28;20041;-54
2022/08/16 08:19:29;;;;;;;20.20;16.55;;;24.20;99.90;;;;;;5041102;28;20170;-54
2022/08/16 08:21:54;;;;;;;17.10;15.40;;;24.50;99.90;;;;;;5040822;28;20136;-54
2022/08/16 08:24:21;;;;;;;16.30;14.57;;;24.70;99.90;;;;;;5041264;28;20048;-54
2022/08/16 08:26:47;;;;;;;16.63;14.30;;;24.80;99.90;;;;;;5040863;28;20049;-54
2022/08/16 08:29:13;;;;;;;16.67;14.82;;;24.60;99.90;;;;;;5041408;28;20427;-56
2022/08/16 08:31:41;;;;;;;15.90;14.20;;;24.60;99.90;;;;;;5041166;28;20052;-53
2022/08/16 08:34:07;;;;;;;17.52;13.75;;;24.90;99.90;;;;;;5041987;28;20052;-56
2022/08/16 08:36:35;;;;;;;15.00;13.50;;;24.90;99.90;;;;;;5041818;28;20037;-53
2022/08/16 08:39:03;;;;;;;14.27;12.60;;;24.80;99.90;;;;;;5040012;28;20056;-53
2022/08/16 08:41:29;;;;;;;15.55;13.40;;;25.10;99.90;;;;;;5040658;28;20095;-53
2022/08/16 08:43:56;;;;;;;15.70;13.40;;;25.10;99.90;;;;;;5041627;28;20044;-55
2022/08/16 08:46:23;;;;;;;16.85;13.57;;;24.90;99.90;;;;;;5041194;28;20053;-55
2022/08/16 08:48:50;;;;;;;15.23;13.73;;;25.10;99.90;;;;;;5041102;28;20037;-56
2022/08/16 08:51:17;;;;;;;14.30;11.15;;;25.30;99.90;;;;;;5041802;28;20045;-56
2022/08/16 08:53:44;;;;;;;15.30;13.70;;;24.80;99.90;;;;;;5041672;28;20076;-56
2022/08/16 08:56:10;;;;;;;15.98;14.45;;;25.20;99.90;;;;;;5040511;28;20063;-56
2022/08/16 08:58:36;;;;;;;18.13;14.27;;;25.30;99.90;;;;;;5041571;28;20736;-57
2022/08/16 09:01:05;;;;;;;16.75;13.45;;;25.20;99.90;;;;;;5041782;28;20049;-56
2022/08/16 09:03:35;;;;;;;15.23;13.73;;;25.40;99.90;;;;;;5041228;28;20047;-56
2022/08/16 09:06:03;;;;;;;14.65;12.30;;;25.60;99.90;;;;;;5038866;28;20529;-56
2022/08/16 09:08:30;;;;;;;14.98;11.15;;;25.90;99.90;;;;;;5040692;28;20060;-55
2022/08/16 09:10:56;;;;;;;11.73;10.52;;;25.70;99.90;;;;;;5040892;28;20088;-57
2022/08/16 09:13:23;;;;;;;10.65;9.20;;;25.70;99.90;;;;;;5041411;28;20036;-58
2022/08/16 09:15:50;;;;;;;10.20;8.07;;;25.80;99.90;;;;;;5040614;28;20057;-57
2022/08/16 09:18:16;;;;;;;10.73;9.52;;;25.80;99.90;;;;;;5041191;28;20041;-57
2022/08/16 09:20:43;;;;;;;10.18;9.18;;;26.10;99.90;;;;;;5041182;28;20045;-57
2022/08/16 09:23:09;;;;;;;12.95;9.38;;;26.20;99.90;;;;;;5041436;28;20052;-57
2022/08/16 09:25:36;;;;;;;10.27;9.18;;;26.30;99.90;;;;;;5038912;28;20044;-57
2022/08/16 09:28:02;;;;;;;11.75;9.70;;;26.40;99.90;;;;;;5039852;28;20053;-57
2022/08/16 09:30:28;;;;;;;9.63;8.60;;;26.50;99.90;;;;;;5041213;28;20207;-57
2022/08/16 09:32:53;;;;;;;9.93;8.77;;;26.60;99.90;;;;;;5039305;28;20076;-57
2022/08/16 09:35:21;;;;;;;9.52;8.52;;;26.90;99.90;;;;;;5043555;28;20111;-57
2022/08/16 09:37:47;;;;;;;13.93;8.52;;;27.00;99.90;;;;;;5043583;28;20578;-57
2022/08/16 09:40:13;;;;;;;9.18;8.27;;;26.90;99.90;;;;;;5044863;28;20041;-57
2022/08/16 09:42:39;;;;;;;10.75;8.32;;;27.00;99.90;;;;;;5043423;28;20039;-57
2022/08/16 09:45:07;;;;;;;10.65;7.70;;;27.20;99.90;;;;;;5044967;28;20060;-57
2022/08/16 09:47:39;;;;;;;9.27;8.07;;;27.70;99.90;;;;;;5044888;28;20057;-58
2022/08/16 09:50:10;;;;;;;8.70;7.80;;;27.20;99.90;;;;;;5043209;28;20087;-58
2022/08/16 09:52:37;;;;;;;8.15;7.28;;;27.50;99.90;;;;;;5045096;28;20081;-58
2022/08/16 09:55:05;;;;;;;9.85;8.30;;;27.40;99.90;;;;;;5044608;28;20171;-57
2022/08/16 09:57:31;;;;;;;12.15;7.25;;;27.50;99.90;;;;;;5043703;28;20515;-58
2022/08/16 09:59:59;;;;;;;10.25;7.50;;;27.70;99.90;;;;;;5042366;28;20759;-57
2022/08/16 10:02:25;;;;;;;9.52;7.00;;;27.60;99.90;;;;;;5044053;28;20527;-57
2022/08/16 10:04:51;;;;;;;12.05;7.10;;;27.90;99.90;;;;;;5044036;28;20076;-57
2022/08/16 10:07:17;;;;;;;10.70;7.88;;;27.90;99.90;;;;;;5041876;28;20095;-58
2022/08/16 10:09:44;;;;;;;10.43;8.23;;;27.80;99.90;;;;;;5023757;28;20430;-58
2022/08/16 10:14:54;;;;;;;;;;;27.60;99.90;;;;;;5024452;28;20045;-57
2022/08/16 10:17:20;;;;;;;9.00;6.75;;;27.50;99.90;;;;;;5022243;28;19932;-57
2022/08/16 10:19:46;;;;;;;10.40;7.07;;;28.00;99.90;;;;;;5022793;28;20088;-57
2022/08/16 10:22:12;;;;;;;9.10;6.75;;;28.10;99.90;;;;;;5024059;28;20497;-56
2022/08/16 10:24:39;;;;;;;9.20;7.80;;;27.70;99.90;;;;;;5023055;28;20084;-57
2022/08/16 10:27:05;;;;;;;8.65;6.70;;;28.10;99.90;;;;;;5023368;28;20042;-58
2022/08/16 10:29:31;;;;;;;9.43;7.85;;;28.10;99.90;;;;;;5024159;28;20048;-57
2022/08/16 10:31:57;;;;;;;8.00;7.20;;;28.20;99.90;;;;;;5023741;28;20556;-58
2022/08/16 10:34:23;;;;;;;12.10;7.70;;;28.20;99.90;;;;;;5021708;28;20123;-58
2022/08/16 10:36:49;;;;;;;10.40;7.38;;;28.50;99.90;;;;;;5023770;28;20385;-58
2022/08/16 10:39:14;;;;;;;8.20;6.35;;;28.40;99.90;;;;;;5023895;28;20045;-61
2022/08/16 10:41:40;;;;;;;6.65;5.50;;;28.40;99.90;;;;;;5022930;28;20049;-56
2022/08/16 10:44:06;;;;;;;5.97;5.38;;;28.50;99.90;;;;;;5023562;28;20459;-58
2022/08/16 10:46:33;;;;;;;6.82;5.50;;;28.40;99.90;;;;;;5023495;28;20067;-58
2022/08/16 10:48:59;;;;;;;9.10;5.63;;;28.40;99.90;;;;;;5023548;28;20095;-56
2022/08/16 10:51:24;;;;;;;7.22;5.10;;;28.50;99.90;;;;;;5023508;28;20459;-57
2022/08/16 10:53:50;;;;;;;6.25;5.03;;;28.50;99.90;;;;;;5005124;28;20068;-57
2022/08/16 10:56:16;;;;;;;8.00;5.18;;;28.20;99.90;;;;;;5022075;28;20048;-57
2022/08/16 10:58:42;;;;;;;6.40;5.57;;;28.60;99.90;;;;;;5021188;28;20136;-57
2022/08/16 11:01:10;;;;;;;6.75;5.25;;;28.90;99.90;;;;;;5022308;28;20047;-58
2022/08/16 11:03:37;;;;;;;6.15;4.97;;;28.90;99.90;;;;;;5022385;28;20053;-59
2022/08/16 11:06:05;;;;;;;6.15;5.55;;;29.30;99.90;;;;;;5028263;28;20060;-57
2022/08/16 11:08:31;;;;;;;5.90;5.30;;;29.20;99.90;;;;;;5041201;28;20049;-57
2022/08/16 11:10:56;;;;;;;5.88;5.03;;;29.20;99.90;;;;;;5041459;28;20731;-58
2022/08/16 11:13:25;;;;;;;7.47;5.05;;;29.00;99.90;;;;;;5042192;28;20377;-57
2022/08/16 11:15:52;;;;;;;5.05;4.35;;;28.90;99.90;;;;;;5041768;28;20044;-57
2022/08/16 11:18:18;;;;;;;6.45;5.22;;;28.80;99.90;;;;;;5043100;28;20407;-57
2022/08/16 11:20:46;;;;;;;7.72;5.85;;;29.00;99.90;;;;;;5042183;28;20056;-57
2022/08/16 11:23:12;;;;;;;12.15;4.70;;;29.10;99.90;;;;;;5042914;28;20199;-57
2022/08/16 11:25:38;;;;;;;5.38;4.88;;;29.10;99.90;;;;;;5041734;28;20053;-57
2022/08/16 11:28:05;;;;;;;7.18;4.95;;;29.30;99.90;;;;;;5042861;28;20036;-57
2022/08/16 11:30:32;;;;;;;6.68;4.53;;;29.50;99.90;;;;;;5042262;28;20423;-58
2022/08/16 11:33:00;;;;;;;5.55;4.68;;;29.50;99.90;;;;;;5042689;28;20051;-57
2022/08/16 11:35:28;;;;;;;6.45;4.55;;;29.00;99.90;;;;;;5042595;28;20052;-57
2022/08/16 11:38:00;;;;;;;8.32;5.15;;;29.20;99.90;;;;;;5041866;28;20053;-57
2022/08/16 11:40:30;;;;;;;6.63;4.95;;;29.60;99.90;;;;;;5041365;28;20130;-57
2022/08/16 11:42:56;;;;;;;5.22;4.20;;;29.60;99.90;;;;;;5042147;28;20037;-57
2022/08/16 11:45:22;;;;;;;6.30;4.45;;;29.30;99.90;;;;;;5041687;28;20508;-57
2022/08/16 11:47:48;;;;;;;12.82;4.32;;;29.90;99.90;;;;;;5042426;28;20080;-57
2022/08/16 11:50:15;;;;;;;7.82;4.65;;;29.90;99.90;;;;;;5042129;28;20542;-58
2022/08/16 11:52:41;;;;;;;7.25;4.90;;;29.70;99.90;;;;;;5041970;28;20045;-58
2022/08/16 11:55:10;;;;;;;5.60;4.65;;;29.70;99.90;;;;;;5039723;28;20052;-59
2022/08/16 11:57:36;;;;;;;10.13;4.85;;;29.80;99.90;;;;;;5041772;28;20186;-57
2022/08/16 12:00:08;;;;;;;9.35;5.30;;;29.60;99.90;;;;;;5042571;28;20046;-57
2022/08/16 12:02:34;;;;;;;6.57;4.72;;;29.50;99.90;;;;;;5041936;28;20086;-58
2022/08/16 12:04:59;;;;;;;5.60;5.03;;;29.80;99.90;;;;;;5057329;28;20068;-57
2022/08/16 12:07:25;;;;;;;8.32;5.60;;;29.70;99.90;;;;;;5041189;28;20047;-57
2022/08/16 12:09:54;;;;;;;6.10;4.75;;;29.70;99.90;;;;;;5042084;28;20120;-57
2022/08/16 12:12:20;;;;;;;6.03;5.18;;;29.50;99.90;;;;;;5040343;28;20045;-57
2022/08/16 12:14:46;;;;;;;6.88;5.47;;;29.70;99.90;;;;;;5041973;28;20084;-57
2022/08/16 12:17:14;;;;;;;7.13;5.55;;;29.70;99.90;;;;;;5041862;28;20079;-57
2022/08/16 12:19:41;;;;;;;7.90;5.60;;;29.60;99.90;;;;;;5040317;28;20063;-57
2022/08/16 12:22:07;;;;;;;5.35;4.72;;;29.80;99.90;;;;;;5041577;28;20044;-60
2022/08/16 12:24:33;;;;;;;7.50;5.40;;;29.70;99.90;;;;;;5042115;28;20060;-57
2022/08/16 12:26:59;;;;;;;8.07;5.32;;;29.90;99.90;;;;;;5039805;28;20055;-58
2022/08/16 12:29:25;;;;;;;8.23;5.10;;;29.90;99.90;;;;;;5041079;28;20090;-57
2022/08/16 12:31:51;;;;;;;6.50;5.53;;;29.90;99.90;;;;;;5042017;28;20080;-57